sensor_id;sensor_type;location;lat;lon;timestamp;temperature;humidity
5792;DHT22;2922;53.482;10.006;2023-12-20T00:00:17;6.00;99.90
5792;DHT22;2922;53.482;10.006;2023-12-20T00:02:42;6.00;99.90
5792;DHT22;2922;53.482;10.006;2023-12-20T00:05:13;6.00;99.90
5792;DHT22;2922;53.482;10.006;2023-12-20T00:07:38;6.00;99.90
5792;DHT22;2922;53.482;10.006;2023-12-20T00:10:04;6.00;99.90
5792;DHT22;2922;53.482;10.006;2023-12-20T00:12:30;5.90;99.90
5792;DHT22;2922;53.482;10.006;2023-12-20T00:14:55;5.90;99.90
5792;DHT22;2922;53.482;10.006;2023-12-20T00:17:21;5.90;99.90
5792;DHT22;2922;53.482;10.006;2023-12-20T00:19:46;5.90;99.90
5792;DHT22;2922;53.482;10.006;2023-12-20T00:22:12;5.80;99.90
5792;DHT22;2922;53.482;10.006;2023-12-20T00:24:38;5.80;99.90
5792;DHT22;2922;53.482;10.006;2023-12-20T00:27:03;5.80;99.90
5792;DHT22;2922;53.482;10.006;2023-12-20T00:29:29;5.80;99.90
5792;DHT22;2922;53.482;10.006;2023-12-20T00:31:54;5.80;99.90
5792;DHT22;2922;53.482;10.006;2023-12-20T00:34:20;5.80;99.90
5792;DHT22;2922;53.482;10.006;2023-12-20T00:36:45;5.70;99.90
5792;DHT22;2922;53.482;10.006;2023-12-20T00:39:11;5.70;99.90
5792;DHT22;2922;53.482;10.006;2023-12-20T00:41:36;5.70;99.90
5792;DHT22;2922;53.482;10.006;2023-12-20T00:44:02;5.80;99.90
5792;DHT22;2922;53.482;10.006;2023-12-20T00:46:28;5.80;99.90
5792;DHT22;2922;53.482;10.006;2023-12-20T00:48:53;5.80;99.90
5792;DHT22;2922;53.482;10.006;2023-12-20T00:51:19;5.80;99.90
5792;DHT22;2922;53.482;10.006;2023-12-20T00:53:44;5.80;99.90
5792;DHT22;2922;53.482;10.006;2023-12-20T00:56:11;5.80;99.90
5792;DHT22;2922;53.482;10.006;2023-12-20T00:58:37;5.90;99.90
5792;DHT22;2922;53.482;10.006;2023-12-20T01:01:02;5.90;99.90
5792;DHT22;2922;53.482;10.006;2023-12-20T01:03:29;5.90;99.90
5792;DHT22;2922;53.482;10.006;2023-12-20T01:05:55;5.90;99.90
5792;DHT22;2922;53.482;10.006;2023-12-20T01:08:20;5.90;99.90
5792;DHT22;2922;53.482;10.006;2023-12-20T01:10:46;5.90;99.90
5792;DHT22;2922;53.482;10.006;2023-12-20T01:13:12;5.80;99.90
5792;DHT22;2922;53.482;10.006;2023-12-20T01:15:37;5.90;99.90
5792;DHT22;2922;53.482;10.006;2023-12-20T01:18:03;5.90;99.90
5792;DHT22;2922;53.482;10.006;2023-12-20T01:20:29;5.80;99.90
5792;DHT22;2922;53.482;10.006;2023-12-20T01:22:54;5.80;99.90
5792;DHT22;2922;53.482;10.006;2023-12-20T01:25:20;5.80;99.90
5792;DHT22;2922;53.482;10.006;2023-12-20T01:27:45;5.70;99.90
5792;DHT22;2922;53.482;10.006;2023-12-20T01:30:11;5.70;99.90
5792;DHT22;2922;53.482;10.006;2023-12-20T01:32:37;5.70;99.90
5792;DHT22;2922;53.482;10.006;2023-12-20T01:35:03;5.70;99.90
5792;DHT22;2922;53.482;10.006;2023-12-20T01:37:28;5.70;99.90
5792;DHT22;2922;53.482;10.006;2023-12-20T01:39:54;5.70;99.90
5792;DHT22;2922;53.482;10.006;2023-12-20T01:42:20;5.60;99.90
5792;DHT22;2922;53.482;10.006;2023-12-20T01:44:45;5.60;99.90
5792;DHT22;2922;53.482;10.006;2023-12-20T01:47:12;5.60;99.90
5792;DHT22;2922;53.482;10.006;2023-12-20T01:49:37;5.60;99.90
5792;DHT22;2922;53.482;10.006;2023-12-20T01:52:03;5.50;99.90
5792;DHT22;2922;53.482;10.006;2023-12-20T01:54:29;5.50;99.90
5792;DHT22;2922;53.482;10.006;2023-12-20T01:56:55;5.50;99.90
5792;DHT22;2922;53.482;10.006;2023-12-20T01:59:21;5.50;99.90
5792;DHT22;2922;53.482;10.006;2023-12-20T02:01:47;5.50;99.90
5792;DHT22;2922;53.482;10.006;2023-12-20T02:04:13;5.50;99.90
5792;DHT22;2922;53.482;10.006;2023-12-20T02:06:40;5.50;99.90
5792;DHT22;2922;53.482;10.006;2023-12-20T02:09:06;5.50;99.90
5792;DHT22;2922;53.482;10.006;2023-12-20T02:11:33;5.50;99.90
5792;DHT22;2922;53.482;10.006;2023-12-20T02:13:58;5.50;99.90
5792;DHT22;2922;53.482;10.006;2023-12-20T02:16:24;5.50;99.90
5792;DHT22;2922;53.482;10.006;2023-12-20T02:18:49;5.50;99.90
5792;DHT22;2922;53.482;10.006;2023-12-20T02:21:15;5.50;99.90
5792;DHT22;2922;53.482;10.006;2023-12-20T02:23:40;5.40;99.90
5792;DHT22;2922;53.482;10.006;2023-12-20T02:26:06;5.40;99.90
5792;DHT22;2922;53.482;10.006;2023-12-20T02:28:32;5.40;99.90
5792;DHT22;2922;53.482;10.006;2023-12-20T02:30:58;5.40;99.90
5792;DHT22;2922;53.482;10.006;2023-12-20T02:33:24;5.40;99.90
5792;DHT22;2922;53.482;10.006;2023-12-20T02:35:50;5.40;99.90
5792;DHT22;2922;53.482;10.006;2023-12-20T02:38:15;5.40;99.90
5792;DHT22;2922;53.482;10.006;2023-12-20T02:40:41;5.40;99.90
5792;DHT22;2922;53.482;10.006;2023-12-20T02:43:06;5.40;99.90
5792;DHT22;2922;53.482;10.006;2023-12-20T02:45:32;5.40;99.90
5792;DHT22;2922;53.482;10.006;2023-12-20T02:47:57;5.40;99.90
5792;DHT22;2922;53.482;10.006;2023-12-20T02:50:23;5.40;99.90
5792;DHT22;2922;53.482;10.006;2023-12-20T02:52:49;5.40;99.90
5792;DHT22;2922;53.482;10.006;2023-12-20T02:55:14;5.40;99.90
5792;DHT22;2922;53.482;10.006;2023-12-20T02:57:40;5.40;99.90
5792;DHT22;2922;53.482;10.006;2023-12-20T03:00:09;5.40;99.90
5792;DHT22;2922;53.482;10.006;2023-12-20T03:02:36;5.40;99.90
5792;DHT22;2922;53.482;10.006;2023-12-20T03:05:02;5.40;99.90
5792;DHT22;2922;53.482;10.006;2023-12-20T03:07:28;5.40;99.90
5792;DHT22;2922;53.482;10.006;2023-12-20T03:09:53;5.40;99.90
5792;DHT22;2922;53.482;10.006;2023-12-20T03:12:19;5.40;99.90
5792;DHT22;2922;53.482;10.006;2023-12-20T03:14:44;5.40;99.90
5792;DHT22;2922;53.482;10.006;2023-12-20T03:17:10;5.40;99.90
5792;DHT22;2922;53.482;10.006;2023-12-20T03:19:36;5.40;99.90
5792;DHT22;2922;53.482;10.006;2023-12-20T03:22:01;5.40;99.90
5792;DHT22;2922;53.482;10.006;2023-12-20T03:24:27;5.40;99.90
5792;DHT22;2922;53.482;10.006;2023-12-20T03:26:53;5.40;99.90
5792;DHT22;2922;53.482;10.006;2023-12-20T03:29:19;5.40;99.90
5792;DHT22;2922;53.482;10.006;2023-12-20T03:31:44;5.40;99.90
5792;DHT22;2922;53.482;10.006;2023-12-20T03:34:11;5.40;99.90
5792;DHT22;2922;53.482;10.006;2023-12-20T03:36:36;5.40;99.90
5792;DHT22;2922;53.482;10.006;2023-12-20T03:39:02;5.40;99.90
5792;DHT22;2922;53.482;10.006;2023-12-20T03:41:28;5.50;99.90
5792;DHT22;2922;53.482;10.006;2023-12-20T03:43:53;5.50;99.90
5792;DHT22;2922;53.482;10.006;2023-12-20T03:46:19;5.50;99.90
5792;DHT22;2922;53.482;10.006;2023-12-20T03:48:44;5.60;99.90
5792;DHT22;2922;53.482;10.006;2023-12-20T03:51:10;5.60;99.90
5792;DHT22;2922;53.482;10.006;2023-12-20T03:53:36;5.60;99.90
5792;DHT22;2922;53.482;10.006;2023-12-20T03:56:01;5.50;99.90
5792;DHT22;2922;53.482;10.006;2023-12-20T03:58:27;5.60;99.90
5792;DHT22;2922;53.482;10.006;2023-12-20T04:00:52;5.60;99.90
5792;DHT22;2922;53.482;10.006;2023-12-20T04:03:18;5.60;99.90
5792;DHT22;2922;53.482;10.006;2023-12-20T04:05:43;5.60;99.90
5792;DHT22;2922;53.482;10.006;2023-12-20T04:08:09;5.60;99.90
5792;DHT22;2922;53.482;10.006;2023-12-20T04:10:35;5.60;99.90
5792;DHT22;2922;53.482;10.006;2023-12-20T04:13:00;5.60;99.90
5792;DHT22;2922;53.482;10.006;2023-12-20T04:15:26;5.60;99.90
5792;DHT22;2922;53.482;10.006;2023-12-20T04:17:51;5.60;99.90
5792;DHT22;2922;53.482;10.006;2023-12-20T04:20:17;5.60;99.90
5792;DHT22;2922;53.482;10.006;2023-12-20T04:22:42;5.70;99.90
5792;DHT22;2922;53.482;10.006;2023-12-20T04:25:08;5.70;99.90
5792;DHT22;2922;53.482;10.006;2023-12-20T04:27:34;5.70;99.90
5792;DHT22;2922;53.482;10.006;2023-12-20T04:29:59;5.60;99.90
5792;DHT22;2922;53.482;10.006;2023-12-20T04:32:25;5.70;99.90
5792;DHT22;2922;53.482;10.006;2023-12-20T04:34:50;5.70;99.90
5792;DHT22;2922;53.482;10.006;2023-12-20T04:37:16;5.70;99.90
5792;DHT22;2922;53.482;10.006;2023-12-20T04:39:41;5.70;99.90
5792;DHT22;2922;53.482;10.006;2023-12-20T04:42:07;5.70;99.90
5792;DHT22;2922;53.482;10.006;2023-12-20T04:44:33;5.70;99.90
5792;DHT22;2922;53.482;10.006;2023-12-20T04:46:59;5.70;99.90
5792;DHT22;2922;53.482;10.006;2023-12-20T04:49:25;5.70;99.90
5792;DHT22;2922;53.482;10.006;2023-12-20T04:51:50;5.70;99.90
5792;DHT22;2922;53.482;10.006;2023-12-20T04:54:16;5.80;99.90
5792;DHT22;2922;53.482;10.006;2023-12-20T04:56:42;5.80;99.90
5792;DHT22;2922;53.482;10.006;2023-12-20T04:59:07;5.80;99.90
5792;DHT22;2922;53.482;10.006;2023-12-20T05:01:33;5.80;99.90
5792;DHT22;2922;53.482;10.006;2023-12-20T05:03:59;5.80;99.90
5792;DHT22;2922;53.482;10.006;2023-12-20T05:06:24;5.80;99.90
5792;DHT22;2922;53.482;10.006;2023-12-20T05:08:50;5.80;99.90
5792;DHT22;2922;53.482;10.006;2023-12-20T05:11:15;5.80;99.90
5792;DHT22;2922;53.482;10.006;2023-12-20T05:13:41;5.80;99.90
5792;DHT22;2922;53.482;10.006;2023-12-20T05:16:06;5.90;99.90
5792;DHT22;2922;53.482;10.006;2023-12-20T05:18:32;5.90;99.90
5792;DHT22;2922;53.482;10.006;2023-12-20T05:20:58;5.90;99.90
5792;DHT22;2922;53.482;10.006;2023-12-20T05:23:24;5.90;99.90
5792;DHT22;2922;53.482;10.006;2023-12-20T05:25:49;5.90;99.90
5792;DHT22;2922;53.482;10.006;2023-12-20T05:28:15;6.00;99.90
5792;DHT22;2922;53.482;10.006;2023-12-20T05:30:40;5.90;99.90
5792;DHT22;2922;53.482;10.006;2023-12-20T05:33:06;5.90;99.90
5792;DHT22;2922;53.482;10.006;2023-12-20T05:35:32;6.00;99.90
5792;DHT22;2922;53.482;10.006;2023-12-20T05:37:57;6.00;99.90
5792;DHT22;2922;53.482;10.006;2023-12-20T05:40:23;6.00;99.90
5792;DHT22;2922;53.482;10.006;2023-12-20T05:42:49;6.00;99.90
5792;DHT22;2922;53.482;10.006;2023-12-20T05:45:15;6.00;99.90
5792;DHT22;2922;53.482;10.006;2023-12-20T05:47:40;6.00;99.90
5792;DHT22;2922;53.482;10.006;2023-12-20T05:50:06;6.00;99.90
5792;DHT22;2922;53.482;10.006;2023-12-20T05:52:32;6.00;99.90
5792;DHT22;2922;53.482;10.006;2023-12-20T05:54:57;6.00;99.90
5792;DHT22;2922;53.482;10.006;2023-12-20T05:57:26;6.10;99.90
5792;DHT22;2922;53.482;10.006;2023-12-20T05:59:52;6.10;99.90
5792;DHT22;2922;53.482;10.006;2023-12-20T06:02:18;6.00;99.90
5792;DHT22;2922;53.482;10.006;2023-12-20T06:04:43;6.10;99.90
5792;DHT22;2922;53.482;10.006;2023-12-20T06:07:12;6.10;99.90
5792;DHT22;2922;53.482;10.006;2023-12-20T06:09:38;6.10;99.90
5792;DHT22;2922;53.482;10.006;2023-12-20T06:12:04;6.10;99.90
5792;DHT22;2922;53.482;10.006;2023-12-20T06:14:29;6.00;99.90
5792;DHT22;2922;53.482;10.006;2023-12-20T06:16:56;6.00;99.90
5792;DHT22;2922;53.482;10.006;2023-12-20T06:19:22;6.00;99.90
5792;DHT22;2922;53.482;10.006;2023-12-20T06:21:47;6.00;99.90
5792;DHT22;2922;53.482;10.006;2023-12-20T06:24:13;6.10;99.90
5792;DHT22;2922;53.482;10.006;2023-12-20T06:26:38;6.10;99.90
5792;DHT22;2922;53.482;10.006;2023-12-20T06:29:04;6.10;99.90
5792;DHT22;2922;53.482;10.006;2023-12-20T06:31:29;6.10;99.90
5792;DHT22;2922;53.482;10.006;2023-12-20T06:33:55;6.10;99.90
5792;DHT22;2922;53.482;10.006;2023-12-20T06:36:23;6.10;99.90
5792;DHT22;2922;53.482;10.006;2023-12-20T06:38:48;6.10;99.90
5792;DHT22;2922;53.482;10.006;2023-12-20T06:41:14;6.10;99.90
5792;DHT22;2922;53.482;10.006;2023-12-20T06:43:40;6.10;99.90
5792;DHT22;2922;53.482;10.006;2023-12-20T06:46:06;6.10;99.90
5792;DHT22;2922;53.482;10.006;2023-12-20T06:48:32;6.10;99.90
5792;DHT22;2922;53.482;10.006;2023-12-20T06:50:59;6.10;99.90
5792;DHT22;2922;53.482;10.006;2023-12-20T06:53:25;6.10;99.90
5792;DHT22;2922;53.482;10.006;2023-12-20T06:55:50;6.10;99.90
5792;DHT22;2922;53.482;10.006;2023-12-20T06:58:16;6.10;99.90
5792;DHT22;2922;53.482;10.006;2023-12-20T07:00:42;6.10;99.90
5792;DHT22;2922;53.482;10.006;2023-12-20T07:03:08;6.10;99.90
5792;DHT22;2922;53.482;10.006;2023-12-20T07:05:34;6.10;99.90
5792;DHT22;2922;53.482;10.006;2023-12-20T07:07:59;6.10;99.90
5792;DHT22;2922;53.482;10.006;2023-12-20T07:10:25;6.10;99.90
5792;DHT22;2922;53.482;10.006;2023-12-20T07:12:51;6.10;99.90
5792;DHT22;2922;53.482;10.006;2023-12-20T07:15:17;6.10;99.90
5792;DHT22;2922;53.482;10.006;2023-12-20T07:17:43;6.10;99.90
5792;DHT22;2922;53.482;10.006;2023-12-20T07:20:09;6.10;99.90
5792;DHT22;2922;53.482;10.006;2023-12-20T07:22:36;6.10;99.90
5792;DHT22;2922;53.482;10.006;2023-12-20T07:25:02;6.10;99.90
5792;DHT22;2922;53.482;10.006;2023-12-20T07:27:27;6.10;99.90
5792;DHT22;2922;53.482;10.006;2023-12-20T07:29:53;6.10;99.90
5792;DHT22;2922;53.482;10.006;2023-12-20T07:32:18;6.10;99.90
5792;DHT22;2922;53.482;10.006;2023-12-20T07:34:44;6.10;99.90
5792;DHT22;2922;53.482;10.006;2023-12-20T07:37:10;6.10;99.90
5792;DHT22;2922;53.482;10.006;2023-12-20T07:39:37;6.10;99.90
5792;DHT22;2922;53.482;10.006;2023-12-20T07:42:03;6.20;99.90
5792;DHT22;2922;53.482;10.006;2023-12-20T07:44:28;6.20;99.90
5792;DHT22;2922;53.482;10.006;2023-12-20T07:46:54;6.20;99.90
5792;DHT22;2922;53.482;10.006;2023-12-20T07:49:19;6.30;99.90
5792;DHT22;2922;53.482;10.006;2023-12-20T07:51:45;6.20;99.90
5792;DHT22;2922;53.482;10.006;2023-12-20T07:54:11;6.30;99.90
5792;DHT22;2922;53.482;10.006;2023-12-20T07:56:36;6.30;99.90
5792;DHT22;2922;53.482;10.006;2023-12-20T07:59:02;6.30;99.90
5792;DHT22;2922;53.482;10.006;2023-12-20T08:01:27;6.30;99.90
5792;DHT22;2922;53.482;10.006;2023-12-20T08:03:53;6.30;99.90
5792;DHT22;2922;53.482;10.006;2023-12-20T08:06:18;6.30;99.90
5792;DHT22;2922;53.482;10.006;2023-12-20T08:08:44;6.40;99.90
5792;DHT22;2922;53.482;10.006;2023-12-20T08:11:10;6.40;99.90
5792;DHT22;2922;53.482;10.006;2023-12-20T08:13:35;6.40;99.90
5792;DHT22;2922;53.482;10.006;2023-12-20T08:16:01;6.40;99.90
5792;DHT22;2922;53.482;10.006;2023-12-20T08:18:28;6.50;99.90
5792;DHT22;2922;53.482;10.006;2023-12-20T08:20:54;6.50;99.90
5792;DHT22;2922;53.482;10.006;2023-12-20T08:23:19;6.50;99.90
5792;DHT22;2922;53.482;10.006;2023-12-20T08:25:46;6.50;99.90
5792;DHT22;2922;53.482;10.006;2023-12-20T08:28:12;6.50;99.90
5792;DHT22;2922;53.482;10.006;2023-12-20T08:30:37;6.50;99.90
5792;DHT22;2922;53.482;10.006;2023-12-20T08:33:04;6.50;99.90
5792;DHT22;2922;53.482;10.006;2023-12-20T08:35:29;6.60;99.90
5792;DHT22;2922;53.482;10.006;2023-12-20T08:37:55;6.60;99.90
5792;DHT22;2922;53.482;10.006;2023-12-20T08:40:22;6.60;99.90
5792;DHT22;2922;53.482;10.006;2023-12-20T08:42:48;6.60;99.90
5792;DHT22;2922;53.482;10.006;2023-12-20T08:45:14;6.70;99.90
5792;DHT22;2922;53.482;10.006;2023-12-20T08:47:39;6.80;99.90
5792;DHT22;2922;53.482;10.006;2023-12-20T08:50:07;6.80;99.90
5792;DHT22;2922;53.482;10.006;2023-12-20T08:52:32;6.80;99.90
5792;DHT22;2922;53.482;10.006;2023-12-20T08:54:58;6.90;99.90
5792;DHT22;2922;53.482;10.006;2023-12-20T08:57:24;6.90;99.90
5792;DHT22;2922;53.482;10.006;2023-12-20T08:59:50;6.90;99.90
5792;DHT22;2922;53.482;10.006;2023-12-20T09:02:17;6.90;99.90
5792;DHT22;2922;53.482;10.006;2023-12-20T09:04:43;6.80;99.90
5792;DHT22;2922;53.482;10.006;2023-12-20T09:07:27;6.70;99.90
5792;DHT22;2922;53.482;10.006;2023-12-20T09:09:55;6.70;99.90
5792;DHT22;2922;53.482;10.006;2023-12-20T09:12:21;6.60;99.90
5792;DHT22;2922;53.482;10.006;2023-12-20T09:14:48;6.60;99.90
5792;DHT22;2922;53.482;10.006;2023-12-20T09:17:13;6.50;99.90
5792;DHT22;2922;53.482;10.006;2023-12-20T09:19:39;6.60;99.90
5792;DHT22;2922;53.482;10.006;2023-12-20T09:22:05;6.50;99.90
5792;DHT22;2922;53.482;10.006;2023-12-20T09:24:31;6.50;99.90
5792;DHT22;2922;53.482;10.006;2023-12-20T09:26:57;6.40;99.90
5792;DHT22;2922;53.482;10.006;2023-12-20T09:29:23;6.30;99.90
5792;DHT22;2922;53.482;10.006;2023-12-20T09:31:48;6.20;99.90
5792;DHT22;2922;53.482;10.006;2023-12-20T09:34:15;6.20;99.90
5792;DHT22;2922;53.482;10.006;2023-12-20T09:36:42;6.20;99.90
5792;DHT22;2922;53.482;10.006;2023-12-20T09:39:13;6.10;99.90
5792;DHT22;2922;53.482;10.006;2023-12-20T09:41:43;6.10;99.90
5792;DHT22;2922;53.482;10.006;2023-12-20T09:44:14;6.10;99.90
5792;DHT22;2922;53.482;10.006;2023-12-20T09:46:43;6.10;99.90
5792;DHT22;2922;53.482;10.006;2023-12-20T09:49:10;6.10;99.90
5792;DHT22;2922;53.482;10.006;2023-12-20T09:51:36;6.00;99.90
5792;DHT22;2922;53.482;10.006;2023-12-20T09:54:03;6.00;99.90
5792;DHT22;2922;53.482;10.006;2023-12-20T09:56:29;6.00;99.90
5792;DHT22;2922;53.482;10.006;2023-12-20T09:58:55;6.00;99.90
5792;DHT22;2922;53.482;10.006;2023-12-20T10:01:21;6.00;99.90
5792;DHT22;2922;53.482;10.006;2023-12-20T10:03:47;6.00;99.90
5792;DHT22;2922;53.482;10.006;2023-12-20T10:06:13;6.00;99.90
5792;DHT22;2922;53.482;10.006;2023-12-20T10:08:38;6.00;99.90
5792;DHT22;2922;53.482;10.006;2023-12-20T10:11:05;6.00;99.90
5792;DHT22;2922;53.482;10.006;2023-12-20T10:13:30;6.00;99.90
5792;DHT22;2922;53.482;10.006;2023-12-20T10:15:56;6.00;99.90
5792;DHT22;2922;53.482;10.006;2023-12-20T10:18:23;6.00;99.90
5792;DHT22;2922;53.482;10.006;2023-12-20T10:20:48;5.90;99.90
5792;DHT22;2922;53.482;10.006;2023-12-20T10:23:15;5.90;99.90
5792;DHT22;2922;53.482;10.006;2023-12-20T10:25:41;5.90;99.90
5792;DHT22;2922;53.482;10.006;2023-12-20T10:28:12;6.00;99.90
5792;DHT22;2922;53.482;10.006;2023-12-20T10:30:38;6.00;99.90
5792;DHT22;2922;53.482;10.006;2023-12-20T10:33:06;6.00;99.90
5792;DHT22;2922;53.482;10.006;2023-12-20T10:35:32;6.00;99.90
5792;DHT22;2922;53.482;10.006;2023-12-20T10:37:58;6.00;99.90
5792;DHT22;2922;53.482;10.006;2023-12-20T10:40:29;6.00;99.90
5792;DHT22;2922;53.482;10.006;2023-12-20T10:42:56;6.00;99.90
5792;DHT22;2922;53.482;10.006;2023-12-20T10:45:22;6.00;99.90
5792;DHT22;2922;53.482;10.006;2023-12-20T10:47:49;6.00;99.90
5792;DHT22;2922;53.482;10.006;2023-12-20T10:50:16;6.00;99.90
5792;DHT22;2922;53.482;10.006;2023-12-20T10:52:42;5.90;99.90
5792;DHT22;2922;53.482;10.006;2023-12-20T10:55:09;6.00;99.90
5792;DHT22;2922;53.482;10.006;2023-12-20T10:57:36;5.90;99.90
5792;DHT22;2922;53.482;10.006;2023-12-20T11:00:02;5.90;99.90
5792;DHT22;2922;53.482;10.006;2023-12-20T11:02:39;5.90;99.90
5792;DHT22;2922;53.482;10.006;2023-12-20T11:13:34;5.70;99.90
5792;DHT22;2922;53.482;10.006;2023-12-20T11:16:02;5.70;99.90
5792;DHT22;2922;53.482;10.006;2023-12-20T11:18:29;5.70;99.90
5792;DHT22;2922;53.482;10.006;2023-12-20T11:21:06;5.70;99.90
5792;DHT22;2922;53.482;10.006;2023-12-20T11:23:35;5.80;99.90
5792;DHT22;2922;53.482;10.006;2023-12-20T11:26:02;5.80;99.90
5792;DHT22;2922;53.482;10.006;2023-12-20T11:28:28;5.80;99.90
5792;DHT22;2922;53.482;10.006;2023-12-20T11:30:56;5.80;99.90
5792;DHT22;2922;53.482;10.006;2023-12-20T11:33:26;5.80;99.90
5792;DHT22;2922;53.482;10.006;2023-12-20T11:35:58;5.80;99.90
5792;DHT22;2922;53.482;10.006;2023-12-20T11:38:25;5.90;99.90
5792;DHT22;2922;53.482;10.006;2023-12-20T11:40:52;6.00;99.90
5792;DHT22;2922;53.482;10.006;2023-12-20T11:43:37;6.10;99.90
5792;DHT22;2922;53.482;10.006;2023-12-20T11:46:07;6.20;99.90
5792;DHT22;2922;53.482;10.006;2023-12-20T11:48:40;6.20;99.90
5792;DHT22;2922;53.482;10.006;2023-12-20T11:51:10;6.20;99.90
5792;DHT22;2922;53.482;10.006;2023-12-20T11:53:36;6.30;99.90
5792;DHT22;2922;53.482;10.006;2023-12-20T11:56:03;6.30;99.90
5792;DHT22;2922;53.482;10.006;2023-12-20T11:58:29;6.40;99.90
5792;DHT22;2922;53.482;10.006;2023-12-20T12:00:56;6.40;99.90
5792;DHT22;2922;53.482;10.006;2023-12-20T12:03:21;6.50;99.90
5792;DHT22;2922;53.482;10.006;2023-12-20T12:05:49;6.50;99.90
5792;DHT22;2922;53.482;10.006;2023-12-20T12:08:15;6.50;99.90
5792;DHT22;2922;53.482;10.006;2023-12-20T12:10:40;6.50;99.90
5792;DHT22;2922;53.482;10.006;2023-12-20T12:13:06;6.40;99.90
5792;DHT22;2922;53.482;10.006;2023-12-20T12:15:32;6.50;99.90
5792;DHT22;2922;53.482;10.006;2023-12-20T12:17:57;6.50;99.90
5792;DHT22;2922;53.482;10.006;2023-12-20T12:20:24;6.50;99.90
5792;DHT22;2922;53.482;10.006;2023-12-20T12:23:04;6.40;99.90
5792;DHT22;2922;53.482;10.006;2023-12-20T12:25:31;6.40;99.90
5792;DHT22;2922;53.482;10.006;2023-12-20T12:27:59;6.40;99.90
5792;DHT22;2922;53.482;10.006;2023-12-20T12:30:25;6.30;99.90
5792;DHT22;2922;53.482;10.006;2023-12-20T12:32:52;6.30;99.90
5792;DHT22;2922;53.482;10.006;2023-12-20T12:35:19;6.30;99.90
5792;DHT22;2922;53.482;10.006;2023-12-20T12:37:45;6.40;99.90
5792;DHT22;2922;53.482;10.006;2023-12-20T12:40:15;6.40;99.90
5792;DHT22;2922;53.482;10.006;2023-12-20T12:42:42;6.40;99.90
5792;DHT22;2922;53.482;10.006;2023-12-20T12:45:09;6.40;99.90
5792;DHT22;2922;53.482;10.006;2023-12-20T12:47:35;6.50;99.90
5792;DHT22;2922;53.482;10.006;2023-12-20T12:50:01;6.50;99.90
5792;DHT22;2922;53.482;10.006;2023-12-20T12:52:27;6.50;99.90
5792;DHT22;2922;53.482;10.006;2023-12-20T12:54:53;6.50;99.90
5792;DHT22;2922;53.482;10.006;2023-12-20T12:57:19;6.50;99.90
5792;DHT22;2922;53.482;10.006;2023-12-20T12:59:45;6.60;99.90
5792;DHT22;2922;53.482;10.006;2023-12-20T13:02:13;6.60;99.90
5792;DHT22;2922;53.482;10.006;2023-12-20T13:04:40;6.70;99.90
5792;DHT22;2922;53.482;10.006;2023-12-20T13:07:06;6.70;99.90
5792;DHT22;2922;53.482;10.006;2023-12-20T13:09:32;6.80;99.90
5792;DHT22;2922;53.482;10.006;2023-12-20T13:11:58;6.70;99.90
5792;DHT22;2922;53.482;10.006;2023-12-20T13:14:24;6.70;99.90
5792;DHT22;2922;53.482;10.006;2023-12-20T13:16:50;6.70;99.90
5792;DHT22;2922;53.482;10.006;2023-12-20T13:19:15;6.70;99.90
5792;DHT22;2922;53.482;10.006;2023-12-20T13:21:41;6.60;99.90
5792;DHT22;2922;53.482;10.006;2023-12-20T13:24:06;6.60;99.90
5792;DHT22;2922;53.482;10.006;2023-12-20T13:26:32;6.60;99.90
5792;DHT22;2922;53.482;10.006;2023-12-20T13:28:58;6.60;99.90
5792;DHT22;2922;53.482;10.006;2023-12-20T13:31:24;6.60;99.90
5792;DHT22;2922;53.482;10.006;2023-12-20T13:33:49;6.60;99.90
5792;DHT22;2922;53.482;10.006;2023-12-20T13:36:15;6.60;99.90
5792;DHT22;2922;53.482;10.006;2023-12-20T13:38:40;6.60;99.90
5792;DHT22;2922;53.482;10.006;2023-12-20T13:41:06;6.60;99.90
5792;DHT22;2922;53.482;10.006;2023-12-20T13:43:32;6.60;99.90
5792;DHT22;2922;53.482;10.006;2023-12-20T13:45:58;6.60;99.90
5792;DHT22;2922;53.482;10.006;2023-12-20T13:48:24;6.60;99.90
5792;DHT22;2922;53.482;10.006;2023-12-20T13:50:50;6.60;99.90
5792;DHT22;2922;53.482;10.006;2023-12-20T13:53:15;6.60;99.90
5792;DHT22;2922;53.482;10.006;2023-12-20T13:55:41;6.60;99.90
5792;DHT22;2922;53.482;10.006;2023-12-20T13:58:07;6.60;99.90
5792;DHT22;2922;53.482;10.006;2023-12-20T14:00:32;6.60;99.90
5792;DHT22;2922;53.482;10.006;2023-12-20T14:02:58;6.70;99.90
5792;DHT22;2922;53.482;10.006;2023-12-20T14:05:24;6.60;99.90
5792;DHT22;2922;53.482;10.006;2023-12-20T14:07:49;6.60;99.90
5792;DHT22;2922;53.482;10.006;2023-12-20T14:10:16;6.60;99.90
5792;DHT22;2922;53.482;10.006;2023-12-20T14:12:42;6.60;99.90
5792;DHT22;2922;53.482;10.006;2023-12-20T14:15:08;6.60;99.90
5792;DHT22;2922;53.482;10.006;2023-12-20T14:17:38;6.60;99.90
5792;DHT22;2922;53.482;10.006;2023-12-20T14:20:08;6.70;99.90
5792;DHT22;2922;53.482;10.006;2023-12-20T14:22:35;6.70;99.90
5792;DHT22;2922;53.482;10.006;2023-12-20T14:25:01;6.60;99.90
5792;DHT22;2922;53.482;10.006;2023-12-20T14:27:27;6.60;99.90
5792;DHT22;2922;53.482;10.006;2023-12-20T14:29:55;6.60;99.90
5792;DHT22;2922;53.482;10.006;2023-12-20T14:32:20;6.60;99.90
5792;DHT22;2922;53.482;10.006;2023-12-20T14:34:46;6.60;99.90
5792;DHT22;2922;53.482;10.006;2023-12-20T14:37:12;6.60;99.90
5792;DHT22;2922;53.482;10.006;2023-12-20T14:39:38;6.50;99.90
5792;DHT22;2922;53.482;10.006;2023-12-20T14:42:07;6.50;99.90
5792;DHT22;2922;53.482;10.006;2023-12-20T14:44:36;6.50;99.90
5792;DHT22;2922;53.482;10.006;2023-12-20T14:47:02;6.50;99.90
5792;DHT22;2922;53.482;10.006;2023-12-20T14:49:27;6.50;99.90
5792;DHT22;2922;53.482;10.006;2023-12-20T14:51:53;6.40;99.90
5792;DHT22;2922;53.482;10.006;2023-12-20T14:54:19;6.40;99.90
5792;DHT22;2922;53.482;10.006;2023-12-20T14:56:46;6.40;99.90
5792;DHT22;2922;53.482;10.006;2023-12-20T14:59:12;6.30;99.90
5792;DHT22;2922;53.482;10.006;2023-12-20T15:01:37;6.30;99.90
5792;DHT22;2922;53.482;10.006;2023-12-20T15:04:06;6.30;99.90
5792;DHT22;2922;53.482;10.006;2023-12-20T15:06:31;6.30;99.90
5792;DHT22;2922;53.482;10.006;2023-12-20T15:08:58;6.20;99.90
5792;DHT22;2922;53.482;10.006;2023-12-20T15:11:24;6.20;99.90
5792;DHT22;2922;53.482;10.006;2023-12-20T15:13:49;6.20;99.90
5792;DHT22;2922;53.482;10.006;2023-12-20T15:16:20;6.20;99.90
5792;DHT22;2922;53.482;10.006;2023-12-20T15:18:46;6.10;99.90
5792;DHT22;2922;53.482;10.006;2023-12-20T15:21:11;6.10;99.90
5792;DHT22;2922;53.482;10.006;2023-12-20T15:23:37;6.10;99.90
5792;DHT22;2922;53.482;10.006;2023-12-20T15:26:03;6.10;99.90
5792;DHT22;2922;53.482;10.006;2023-12-20T15:28:30;6.10;99.90
5792;DHT22;2922;53.482;10.006;2023-12-20T15:30:55;6.10;99.90
5792;DHT22;2922;53.482;10.006;2023-12-20T15:33:22;6.00;99.90
5792;DHT22;2922;53.482;10.006;2023-12-20T15:35:48;6.00;99.90
5792;DHT22;2922;53.482;10.006;2023-12-20T15:38:13;6.00;99.90
5792;DHT22;2922;53.482;10.006;2023-12-20T15:40:39;6.00;99.90
5792;DHT22;2922;53.482;10.006;2023-12-20T15:43:04;5.90;99.90
5792;DHT22;2922;53.482;10.006;2023-12-20T15:45:30;5.90;99.90
5792;DHT22;2922;53.482;10.006;2023-12-20T15:47:56;5.90;99.90
5792;DHT22;2922;53.482;10.006;2023-12-20T15:50:21;5.90;99.90
5792;DHT22;2922;53.482;10.006;2023-12-20T15:52:47;5.90;99.90
5792;DHT22;2922;53.482;10.006;2023-12-20T15:55:13;5.80;99.90
5792;DHT22;2922;53.482;10.006;2023-12-20T15:57:38;5.80;99.90
5792;DHT22;2922;53.482;10.006;2023-12-20T16:00:07;5.80;99.90
5792;DHT22;2922;53.482;10.006;2023-12-20T16:02:34;5.70;99.90